sensor_id;sensor_type;location;lat;lon;timestamp;P1;durP1;ratioP1;P2;durP2;ratioP2
11197;SDS011;5655;48.744;9.162;2024-01-11T00:02:07;46.20;;;23.20;;
11197;SDS011;5655;48.744;9.162;2024-01-11T00:04:32;43.17;;;22.20;;
11197;SDS011;5655;48.744;9.162;2024-01-11T00:06:58;47.80;;;23.70;;
11197;SDS011;5655;48.744;9.162;2024-01-11T00:09:23;43.90;;;22.57;;
11197;SDS011;5655;48.744;9.162;2024-01-11T00:11:48;43.53;;;23.33;;
11197;SDS011;5655;48.744;9.162;2024-01-11T00:14:14;43.40;;;23.37;;
11197;SDS011;5655;48.744;9.162;2024-01-11T00:16:39;42.83;;;22.87;;
11197;SDS011;5655;48.744;9.162;2024-01-11T00:19:06;48.60;;;23.90;;
11197;SDS011;5655;48.744;9.162;2024-01-11T00:21:31;44.33;;;23.27;;
11197;SDS011;5655;48.744;9.162;2024-01-11T00:23:56;45.77;;;24.13;;
11197;SDS011;5655;48.744;9.162;2024-01-11T00:26:22;47.50;;;22.57;;
11197;SDS011;5655;48.744;9.162;2024-01-11T00:28:47;47.03;;;22.27;;
11197;SDS011;5655;48.744;9.162;2024-01-11T00:31:12;50.17;;;23.47;;
11197;SDS011;5655;48.744;9.162;2024-01-11T00:33:38;46.27;;;23.10;;
11197;SDS011;5655;48.744;9.162;2024-01-11T00:36:04;53.23;;;25.57;;
11197;SDS011;5655;48.744;9.162;2024-01-11T00:38:29;43.40;;;22.13;;
11197;SDS011;5655;48.744;9.162;2024-01-11T00:40:55;55.13;;;25.87;;
11197;SDS011;5655;48.744;9.162;2024-01-11T00:43:20;47.90;;;24.10;;
11197;SDS011;5655;48.744;9.162;2024-01-11T00:45:45;46.67;;;23.10;;
11197;SDS011;5655;48.744;9.162;2024-01-11T00:48:11;45.67;;;23.20;;
11197;SDS011;5655;48.744;9.162;2024-01-11T00:50:37;45.10;;;22.87;;
11197;SDS011;5655;48.744;9.162;2024-01-11T00:53:02;49.17;;;23.80;;
11197;SDS011;5655;48.744;9.162;2024-01-11T00:55:28;46.57;;;24.30;;
11197;SDS011;5655;48.744;9.162;2024-01-11T00:57:54;45.40;;;24.47;;
11197;SDS011;5655;48.744;9.162;2024-01-11T01:00:19;50.20;;;24.60;;
11197;SDS011;5655;48.744;9.162;2024-01-11T01:02:44;45.27;;;23.73;;
11197;SDS011;5655;48.744;9.162;2024-01-11T01:05:10;47.53;;;24.63;;
11197;SDS011;5655;48.744;9.162;2024-01-11T01:07:35;51.73;;;25.93;;
11197;SDS011;5655;48.744;9.162;2024-01-11T01:10:00;48.97;;;23.30;;
11197;SDS011;5655;48.744;9.162;2024-01-11T01:12:26;55.73;;;25.60;;
11197;SDS011;5655;48.744;9.162;2024-01-11T01:14:53;53.50;;;24.93;;
11197;SDS011;5655;48.744;9.162;2024-01-11T01:17:19;48.40;;;23.23;;
11197;SDS011;5655;48.744;9.162;2024-01-11T01:19:44;52.57;;;25.67;;
11197;SDS011;5655;48.744;9.162;2024-01-11T01:22:09;51.33;;;24.67;;
11197;SDS011;5655;48.744;9.162;2024-01-11T01:24:35;52.47;;;25.43;;
11197;SDS011;5655;48.744;9.162;2024-01-11T01:27:00;44.40;;;24.20;;
11197;SDS011;5655;48.744;9.162;2024-01-11T01:29:26;51.07;;;25.00;;
11197;SDS011;5655;48.744;9.162;2024-01-11T01:31:51;48.60;;;25.23;;
11197;SDS011;5655;48.744;9.162;2024-01-11T01:34:17;52.53;;;25.47;;
11197;SDS011;5655;48.744;9.162;2024-01-11T01:36:42;57.10;;;25.27;;
11197;SDS011;5655;48.744;9.162;2024-01-11T01:39:08;48.40;;;24.93;;
11197;SDS011;5655;48.744;9.162;2024-01-11T01:41:33;47.90;;;23.90;;
11197;SDS011;5655;48.744;9.162;2024-01-11T01:43:58;63.97;;;26.37;;
11197;SDS011;5655;48.744;9.162;2024-01-11T01:46:24;54.60;;;25.87;;
11197;SDS011;5655;48.744;9.162;2024-01-11T01:48:51;48.77;;;23.87;;
11197;SDS011;5655;48.744;9.162;2024-01-11T01:51:18;46.17;;;24.17;;
11197;SDS011;5655;48.744;9.162;2024-01-11T01:53:43;47.67;;;23.80;;
11197;SDS011;5655;48.744;9.162;2024-01-11T01:56:09;51.87;;;24.00;;
11197;SDS011;5655;48.744;9.162;2024-01-11T01:58:35;47.67;;;25.30;;
11197;SDS011;5655;48.744;9.162;2024-01-11T02:01:01;50.17;;;25.90;;
11197;SDS011;5655;48.744;9.162;2024-01-11T02:03:27;48.60;;;25.17;;
11197;SDS011;5655;48.744;9.162;2024-01-11T02:05:54;51.27;;;25.57;;
11197;SDS011;5655;48.744;9.162;2024-01-11T02:08:20;45.83;;;23.37;;
11197;SDS011;5655;48.744;9.162;2024-01-11T02:10:47;51.83;;;25.73;;
11197;SDS011;5655;48.744;9.162;2024-01-11T02:13:12;53.33;;;26.57;;
11197;SDS011;5655;48.744;9.162;2024-01-11T02:15:38;54.80;;;26.40;;
11197;SDS011;5655;48.744;9.162;2024-01-11T02:18:03;53.53;;;25.87;;
11197;SDS011;5655;48.744;9.162;2024-01-11T02:20:29;50.90;;;25.67;;
11197;SDS011;5655;48.744;9.162;2024-01-11T02:22:56;45.97;;;23.83;;
11197;SDS011;5655;48.744;9.162;2024-01-11T02:25:28;54.13;;;26.57;;
11197;SDS011;5655;48.744;9.162;2024-01-11T02:27:54;48.60;;;24.03;;
11197;SDS011;5655;48.744;9.162;2024-01-11T02:30:19;49.97;;;25.00;;
11197;SDS011;5655;48.744;9.162;2024-01-11T02:32:45;55.10;;;26.23;;
11197;SDS011;5655;48.744;9.162;2024-01-11T02:35:13;51.13;;;26.57;;
11197;SDS011;5655;48.744;9.162;2024-01-11T02:37:43;59.23;;;27.17;;
11197;SDS011;5655;48.744;9.162;2024-01-11T02:40:10;51.73;;;26.67;;
11197;SDS011;5655;48.744;9.162;2024-01-11T02:42:37;60.23;;;27.63;;
11197;SDS011;5655;48.744;9.162;2024-01-11T02:45:03;63.30;;;27.27;;
11197;SDS011;5655;48.744;9.162;2024-01-11T02:47:29;59.23;;;26.73;;
11197;SDS011;5655;48.744;9.162;2024-01-11T02:49:55;50.80;;;26.10;;
11197;SDS011;5655;48.744;9.162;2024-01-11T02:52:21;59.60;;;29.10;;
11197;SDS011;5655;48.744;9.162;2024-01-11T02:54:48;51.17;;;26.00;;
11197;SDS011;5655;48.744;9.162;2024-01-11T02:57:13;58.20;;;28.43;;
11197;SDS011;5655;48.744;9.162;2024-01-11T02:59:39;55.83;;;27.27;;
11197;SDS011;5655;48.744;9.162;2024-01-11T03:02:05;55.80;;;28.40;;
11197;SDS011;5655;48.744;9.162;2024-01-11T03:04:30;55.50;;;27.03;;
11197;SDS011;5655;48.744;9.162;2024-01-11T03:06:55;51.33;;;26.40;;
11197;SDS011;5655;48.744;9.162;2024-01-11T03:09:21;51.40;;;25.37;;
11197;SDS011;5655;48.744;9.162;2024-01-11T03:11:46;53.33;;;27.97;;
11197;SDS011;5655;48.744;9.162;2024-01-11T03:14:11;48.37;;;24.63;;
11197;SDS011;5655;48.744;9.162;2024-01-11T03:16:37;51.20;;;25.60;;
11197;SDS011;5655;48.744;9.162;2024-01-11T03:19:04;53.33;;;26.50;;
11197;SDS011;5655;48.744;9.162;2024-01-11T03:21:30;50.50;;;25.47;;
11197;SDS011;5655;48.744;9.162;2024-01-11T03:23:55;52.43;;;25.80;;
11197;SDS011;5655;48.744;9.162;2024-01-11T03:26:20;54.40;;;26.23;;
11197;SDS011;5655;48.744;9.162;2024-01-11T03:28:46;52.57;;;25.43;;
11197;SDS011;5655;48.744;9.162;2024-01-11T03:31:11;56.30;;;26.93;;
11197;SDS011;5655;48.744;9.162;2024-01-11T03:33:36;56.90;;;26.67;;
11197;SDS011;5655;48.744;9.162;2024-01-11T03:36:08;49.03;;;25.77;;
11197;SDS011;5655;48.744;9.162;2024-01-11T03:38:34;49.03;;;25.93;;
11197;SDS011;5655;48.744;9.162;2024-01-11T03:41:00;52.83;;;25.77;;
11197;SDS011;5655;48.744;9.162;2024-01-11T03:43:25;48.77;;;24.57;;
11197;SDS011;5655;48.744;9.162;2024-01-11T03:45:50;48.00;;;24.77;;
11197;SDS011;5655;48.744;9.162;2024-01-11T03:48:16;53.90;;;25.27;;
11197;SDS011;5655;48.744;9.162;2024-01-11T03:50:41;51.33;;;25.33;;
11197;SDS011;5655;48.744;9.162;2024-01-11T03:53:06;50.00;;;25.27;;
11197;SDS011;5655;48.744;9.162;2024-01-11T03:55:32;51.37;;;25.83;;
11197;SDS011;5655;48.744;9.162;2024-01-11T03:57:58;53.27;;;26.47;;
11197;SDS011;5655;48.744;9.162;2024-01-11T04:00:23;53.00;;;26.90;;
11197;SDS011;5655;48.744;9.162;2024-01-11T04:02:48;54.70;;;25.90;;
11197;SDS011;5655;48.744;9.162;2024-01-11T04:05:14;55.70;;;26.53;;
11197;SDS011;5655;48.744;9.162;2024-01-11T04:07:40;53.40;;;25.67;;
11197;SDS011;5655;48.744;9.162;2024-01-11T04:10:05;48.77;;;25.13;;
11197;SDS011;5655;48.744;9.162;2024-01-11T04:12:31;54.20;;;26.80;;
11197;SDS011;5655;48.744;9.162;2024-01-11T04:14:56;53.90;;;26.93;;
11197;SDS011;5655;48.744;9.162;2024-01-11T04:17:22;56.77;;;27.97;;
11197;SDS011;5655;48.744;9.162;2024-01-11T04:19:47;52.83;;;25.20;;
11197;SDS011;5655;48.744;9.162;2024-01-11T04:22:12;50.73;;;25.70;;
11197;SDS011;5655;48.744;9.162;2024-01-11T04:24:38;55.07;;;27.57;;
11197;SDS011;5655;48.744;9.162;2024-01-11T04:27:03;52.40;;;26.23;;
11197;SDS011;5655;48.744;9.162;2024-01-11T04:29:28;55.57;;;26.63;;
11197;SDS011;5655;48.744;9.162;2024-01-11T04:31:54;47.77;;;24.97;;
11197;SDS011;5655;48.744;9.162;2024-01-11T04:34:19;54.47;;;26.67;;
11197;SDS011;5655;48.744;9.162;2024-01-11T04:36:44;48.40;;;25.20;;
11197;SDS011;5655;48.744;9.162;2024-01-11T04:39:10;49.13;;;24.90;;
11197;SDS011;5655;48.744;9.162;2024-01-11T04:41:36;52.53;;;25.27;;
11197;SDS011;5655;48.744;9.162;2024-01-11T04:44:02;52.27;;;24.60;;
11197;SDS011;5655;48.744;9.162;2024-01-11T04:46:27;56.03;;;26.70;;
11197;SDS011;5655;48.744;9.162;2024-01-11T04:48:52;51.73;;;25.50;;
11197;SDS011;5655;48.744;9.162;2024-01-11T04:51:19;51.03;;;24.83;;
11197;SDS011;5655;48.744;9.162;2024-01-11T04:53:45;51.70;;;23.97;;
11197;SDS011;5655;48.744;9.162;2024-01-11T04:56:12;49.57;;;26.73;;
11197;SDS011;5655;48.744;9.162;2024-01-11T04:58:41;50.70;;;24.87;;
11197;SDS011;5655;48.744;9.162;2024-01-11T05:01:11;52.63;;;26.60;;
11197;SDS011;5655;48.744;9.162;2024-01-11T05:03:41;52.63;;;25.83;;
11197;SDS011;5655;48.744;9.162;2024-01-11T05:06:07;53.37;;;25.50;;
11197;SDS011;5655;48.744;9.162;2024-01-11T05:08:32;57.00;;;25.53;;
11197;SDS011;5655;48.744;9.162;2024-01-11T05:10:58;47.83;;;24.00;;
11197;SDS011;5655;48.744;9.162;2024-01-11T05:13:23;53.33;;;25.03;;
11197;SDS011;5655;48.744;9.162;2024-01-11T05:15:49;52.47;;;26.63;;
11197;SDS011;5655;48.744;9.162;2024-01-11T05:18:14;52.10;;;25.57;;
11197;SDS011;5655;48.744;9.162;2024-01-11T05:20:39;50.40;;;25.27;;
11197;SDS011;5655;48.744;9.162;2024-01-11T05:23:05;54.60;;;26.43;;
11197;SDS011;5655;48.744;9.162;2024-01-11T05:25:31;47.77;;;23.10;;
11197;SDS011;5655;48.744;9.162;2024-01-11T05:28:00;57.83;;;26.70;;
11197;SDS011;5655;48.744;9.162;2024-01-11T05:30:25;52.60;;;26.13;;
11197;SDS011;5655;48.744;9.162;2024-01-11T05:32:51;59.80;;;27.23;;
11197;SDS011;5655;48.744;9.162;2024-01-11T05:35:16;60.77;;;27.67;;
11197;SDS011;5655;48.744;9.162;2024-01-11T05:37:42;55.03;;;26.07;;
11197;SDS011;5655;48.744;9.162;2024-01-11T05:40:07;52.87;;;25.73;;
11197;SDS011;5655;48.744;9.162;2024-01-11T05:42:33;54.43;;;26.67;;
11197;SDS011;5655;48.744;9.162;2024-01-11T05:44:58;59.67;;;27.70;;
11197;SDS011;5655;48.744;9.162;2024-01-11T05:47:23;55.40;;;27.13;;
11197;SDS011;5655;48.744;9.162;2024-01-11T05:49:49;59.70;;;26.57;;
11197;SDS011;5655;48.744;9.162;2024-01-11T05:52:15;55.73;;;26.73;;
11197;SDS011;5655;48.744;9.162;2024-01-11T05:54:40;57.33;;;28.17;;
11197;SDS011;5655;48.744;9.162;2024-01-11T05:57:05;54.90;;;26.53;;
11197;SDS011;5655;48.744;9.162;2024-01-11T05:59:32;52.17;;;26.33;;
11197;SDS011;5655;48.744;9.162;2024-01-11T06:01:57;53.27;;;26.93;;
11197;SDS011;5655;48.744;9.162;2024-01-11T06:04:25;54.00;;;26.83;;
11197;SDS011;5655;48.744;9.162;2024-01-11T06:06:51;60.23;;;26.60;;
11197;SDS011;5655;48.744;9.162;2024-01-11T06:09:16;65.20;;;28.07;;
11197;SDS011;5655;48.744;9.162;2024-01-11T06:11:41;57.03;;;28.03;;
11197;SDS011;5655;48.744;9.162;2024-01-11T06:14:07;54.13;;;27.33;;
11197;SDS011;5655;48.744;9.162;2024-01-11T06:16:32;60.23;;;28.43;;
11197;SDS011;5655;48.744;9.162;2024-01-11T06:18:57;55.93;;;27.70;;
11197;SDS011;5655;48.744;9.162;2024-01-11T06:21:23;56.37;;;28.43;;
11197;SDS011;5655;48.744;9.162;2024-01-11T06:23:48;60.13;;;27.80;;
11197;SDS011;5655;48.744;9.162;2024-01-11T06:26:14;68.73;;;28.20;;
11197;SDS011;5655;48.744;9.162;2024-01-11T06:28:39;60.20;;;28.13;;
11197;SDS011;5655;48.744;9.162;2024-01-11T06:31:05;56.77;;;26.67;;
11197;SDS011;5655;48.744;9.162;2024-01-11T06:33:31;56.73;;;27.47;;
11197;SDS011;5655;48.744;9.162;2024-01-11T06:35:57;56.57;;;27.17;;
11197;SDS011;5655;48.744;9.162;2024-01-11T06:38:23;56.47;;;27.07;;
11197;SDS011;5655;48.744;9.162;2024-01-11T06:40:48;60.27;;;27.93;;
11197;SDS011;5655;48.744;9.162;2024-01-11T06:43:14;54.27;;;26.60;;
11197;SDS011;5655;48.744;9.162;2024-01-11T06:45:40;57.57;;;27.83;;
11197;SDS011;5655;48.744;9.162;2024-01-11T06:48:08;50.57;;;26.10;;
11197;SDS011;5655;48.744;9.162;2024-01-11T06:50:33;55.93;;;27.93;;
11197;SDS011;5655;48.744;9.162;2024-01-11T06:52:59;56.67;;;28.43;;
11197;SDS011;5655;48.744;9.162;2024-01-11T06:55:24;54.73;;;27.93;;
11197;SDS011;5655;48.744;9.162;2024-01-11T06:57:50;55.77;;;26.73;;
11197;SDS011;5655;48.744;9.162;2024-01-11T07:00:15;62.50;;;28.50;;
11197;SDS011;5655;48.744;9.162;2024-01-11T07:02:41;60.63;;;29.13;;
11197;SDS011;5655;48.744;9.162;2024-01-11T07:05:06;57.67;;;28.87;;
11197;SDS011;5655;48.744;9.162;2024-01-11T07:07:32;56.70;;;28.03;;
11197;SDS011;5655;48.744;9.162;2024-01-11T07:09:58;52.77;;;26.50;;
11197;SDS011;5655;48.744;9.162;2024-01-11T07:12:23;55.13;;;27.93;;
11197;SDS011;5655;48.744;9.162;2024-01-11T07:14:49;57.17;;;27.20;;
11197;SDS011;5655;48.744;9.162;2024-01-11T07:17:14;57.77;;;27.10;;
11197;SDS011;5655;48.744;9.162;2024-01-11T07:19:40;51.47;;;27.13;;
11197;SDS011;5655;48.744;9.162;2024-01-11T07:22:05;54.60;;;27.27;;
11197;SDS011;5655;48.744;9.162;2024-01-11T07:24:30;46.57;;;24.27;;
11197;SDS011;5655;48.744;9.162;2024-01-11T07:27:02;55.97;;;27.30;;
11197;SDS011;5655;48.744;9.162;2024-01-11T07:29:31;56.13;;;26.43;;
11197;SDS011;5655;48.744;9.162;2024-01-11T07:31:57;60.97;;;29.50;;
11197;SDS011;5655;48.744;9.162;2024-01-11T07:34:22;58.47;;;28.53;;
11197;SDS011;5655;48.744;9.162;2024-01-11T07:36:49;55.80;;;27.13;;
11197;SDS011;5655;48.744;9.162;2024-01-11T07:39:14;56.53;;;27.27;;
11197;SDS011;5655;48.744;9.162;2024-01-11T07:41:40;57.13;;;27.13;;
11197;SDS011;5655;48.744;9.162;2024-01-11T07:44:05;54.40;;;27.10;;
11197;SDS011;5655;48.744;9.162;2024-01-11T07:46:31;55.27;;;27.90;;
11197;SDS011;5655;48.744;9.162;2024-01-11T07:48:56;58.40;;;27.83;;
11197;SDS011;5655;48.744;9.162;2024-01-11T07:51:21;60.50;;;26.70;;
11197;SDS011;5655;48.744;9.162;2024-01-11T07:53:47;52.77;;;26.97;;
11197;SDS011;5655;48.744;9.162;2024-01-11T07:56:12;49.87;;;25.57;;
11197;SDS011;5655;48.744;9.162;2024-01-11T07:58:39;55.63;;;26.93;;
11197;SDS011;5655;48.744;9.162;2024-01-11T08:01:06;48.00;;;24.70;;
11197;SDS011;5655;48.744;9.162;2024-01-11T08:03:31;57.13;;;27.87;;
11197;SDS011;5655;48.744;9.162;2024-01-11T08:05:59;49.97;;;26.10;;
11197;SDS011;5655;48.744;9.162;2024-01-11T08:08:25;63.83;;;27.60;;
11197;SDS011;5655;48.744;9.162;2024-01-11T08:10:51;53.40;;;25.13;;
11197;SDS011;5655;48.744;9.162;2024-01-11T08:13:16;57.00;;;28.27;;
11197;SDS011;5655;48.744;9.162;2024-01-11T08:15:42;57.70;;;28.63;;
11197;SDS011;5655;48.744;9.162;2024-01-11T08:18:08;53.97;;;26.67;;
11197;SDS011;5655;48.744;9.162;2024-01-11T08:20:33;53.87;;;26.80;;
11197;SDS011;5655;48.744;9.162;2024-01-11T08:22:59;49.63;;;28.13;;
11197;SDS011;5655;48.744;9.162;2024-01-11T08:25:24;59.67;;;26.87;;
11197;SDS011;5655;48.744;9.162;2024-01-11T08:27:50;59.20;;;29.03;;
11197;SDS011;5655;48.744;9.162;2024-01-11T08:30:15;60.13;;;29.53;;
11197;SDS011;5655;48.744;9.162;2024-01-11T08:32:41;54.33;;;26.90;;
11197;SDS011;5655;48.744;9.162;2024-01-11T08:35:08;53.57;;;29.00;;
11197;SDS011;5655;48.744;9.162;2024-01-11T08:37:35;58.00;;;29.97;;
11197;SDS011;5655;48.744;9.162;2024-01-11T08:40:01;65.23;;;29.83;;
11197;SDS011;5655;48.744;9.162;2024-01-11T08:42:26;57.20;;;29.30;;
11197;SDS011;5655;48.744;9.162;2024-01-11T08:44:52;61.73;;;29.90;;
11197;SDS011;5655;48.744;9.162;2024-01-11T08:47:17;64.87;;;29.77;;
11197;SDS011;5655;48.744;9.162;2024-01-11T08:49:43;61.47;;;30.37;;
11197;SDS011;5655;48.744;9.162;2024-01-11T08:52:08;53.27;;;28.87;;
11197;SDS011;5655;48.744;9.162;2024-01-11T08:54:33;59.80;;;29.83;;
11197;SDS011;5655;48.744;9.162;2024-01-11T08:56:59;63.70;;;30.63;;
11197;SDS011;5655;48.744;9.162;2024-01-11T08:59:24;57.63;;;27.33;;
11197;SDS011;5655;48.744;9.162;2024-01-11T09:01:50;61.37;;;29.80;;
11197;SDS011;5655;48.744;9.162;2024-01-11T09:04:16;62.23;;;30.10;;
11197;SDS011;5655;48.744;9.162;2024-01-11T09:06:42;59.13;;;29.60;;
11197;SDS011;5655;48.744;9.162;2024-01-11T09:09:08;51.03;;;27.63;;
11197;SDS011;5655;48.744;9.162;2024-01-11T09:11:35;58.17;;;29.53;;
11197;SDS011;5655;48.744;9.162;2024-01-11T09:14:01;60.03;;;31.10;;
11197;SDS011;5655;48.744;9.162;2024-01-11T09:16:28;52.13;;;27.93;;
11197;SDS011;5655;48.744;9.162;2024-01-11T09:18:53;57.20;;;27.03;;
11197;SDS011;5655;48.744;9.162;2024-01-11T09:21:19;56.43;;;28.53;;
11197;SDS011;5655;48.744;9.162;2024-01-11T09:23:44;59.50;;;29.20;;
11197;SDS011;5655;48.744;9.162;2024-01-11T09:26:09;59.70;;;29.40;;
11197;SDS011;5655;48.744;9.162;2024-01-11T09:28:35;59.73;;;29.73;;
11197;SDS011;5655;48.744;9.162;2024-01-11T09:31:00;58.50;;;31.03;;
11197;SDS011;5655;48.744;9.162;2024-01-11T09:33:27;60.33;;;30.67;;
11197;SDS011;5655;48.744;9.162;2024-01-11T09:35:52;61.13;;;30.23;;
11197;SDS011;5655;48.744;9.162;2024-01-11T09:38:19;62.13;;;30.23;;
11197;SDS011;5655;48.744;9.162;2024-01-11T09:40:44;59.00;;;31.20;;
11197;SDS011;5655;48.744;9.162;2024-01-11T09:43:09;59.40;;;30.33;;
11197;SDS011;5655;48.744;9.162;2024-01-11T09:45:35;62.60;;;30.50;;
11197;SDS011;5655;48.744;9.162;2024-01-11T09:48:03;58.17;;;29.57;;
11197;SDS011;5655;48.744;9.162;2024-01-11T09:50:31;54.33;;;28.73;;
11197;SDS011;5655;48.744;9.162;2024-01-11T09:52:57;59.57;;;29.60;;
11197;SDS011;5655;48.744;9.162;2024-01-11T09:55:23;60.90;;;30.57;;
11197;SDS011;5655;48.744;9.162;2024-01-11T09:57:48;64.50;;;32.30;;
11197;SDS011;5655;48.744;9.162;2024-01-11T10:00:18;58.63;;;29.80;;
11197;SDS011;5655;48.744;9.162;2024-01-11T10:02:47;57.07;;;30.53;;
11197;SDS011;5655;48.744;9.162;2024-01-11T10:05:12;58.20;;;30.20;;
11197;SDS011;5655;48.744;9.162;2024-01-11T10:07:39;59.43;;;29.20;;
11197;SDS011;5655;48.744;9.162;2024-01-11T10:10:04;54.83;;;27.87;;
11197;SDS011;5655;48.744;9.162;2024-01-11T10:12:32;58.57;;;30.20;;
11197;SDS011;5655;48.744;9.162;2024-01-11T10:15:06;59.17;;;30.10;;
11197;SDS011;5655;48.744;9.162;2024-01-11T10:17:44;55.60;;;29.73;;
11197;SDS011;5655;48.744;9.162;2024-01-11T10:20:11;60.40;;;28.87;;
11197;SDS011;5655;48.744;9.162;2024-01-11T10:22:40;53.80;;;29.37;;
11197;SDS011;5655;48.744;9.162;2024-01-11T10:25:12;55.93;;;29.03;;
11197;SDS011;5655;48.744;9.162;2024-01-11T10:27:42;53.53;;;29.53;;
11197;SDS011;5655;48.744;9.162;2024-01-11T10:30:09;52.73;;;27.97;;
11197;SDS011;5655;48.744;9.162;2024-01-11T10:32:36;56.77;;;27.67;;
11197;SDS011;5655;48.744;9.162;2024-01-11T10:35:02;52.03;;;27.73;;
11197;SDS011;5655;48.744;9.162;2024-01-11T10:37:30;53.50;;;28.53;;
11197;SDS011;5655;48.744;9.162;2024-01-11T10:40:03;51.17;;;27.03;;
11197;SDS011;5655;48.744;9.162;2024-01-11T10:42:34;53.60;;;28.03;;
11197;SDS011;5655;48.744;9.162;2024-01-11T10:45:02;49.50;;;27.13;;
11197;SDS011;5655;48.744;9.162;2024-01-11T10:47:31;48.10;;;27.23;;
11197;SDS011;5655;48.744;9.162;2024-01-11T10:49:57;52.00;;;27.47;;
11197;SDS011;5655;48.744;9.162;2024-01-11T10:52:26;52.30;;;28.80;;
11197;SDS011;5655;48.744;9.162;2024-01-11T10:54:58;47.17;;;28.07;;
11197;SDS011;5655;48.744;9.162;2024-01-11T10:57:24;44.40;;;26.27;;
11197;SDS011;5655;48.744;9.162;2024-01-11T10:59:50;46.50;;;27.10;;
11197;SDS011;5655;48.744;9.162;2024-01-11T11:02:17;48.43;;;27.33;;
11197;SDS011;5655;48.744;9.162;2024-01-11T11:04:43;49.33;;;27.20;;
11197;SDS011;5655;48.744;9.162;2024-01-11T11:07:11;49.47;;;26.93;;
11197;SDS011;5655;48.744;9.162;2024-01-11T11:09:39;52.53;;;27.43;;
11197;SDS011;5655;48.744;9.162;2024-01-11T11:12:08;48.33;;;27.80;;
11197;SDS011;5655;48.744;9.162;2024-01-11T11:14:35;50.00;;;26.63;;
11197;SDS011;5655;48.744;9.162;2024-01-11T11:17:03;50.73;;;27.77;;
11197;SDS011;5655;48.744;9.162;2024-01-11T11:19:29;48.30;;;28.23;;
11197;SDS011;5655;48.744;9.162;2024-01-11T11:21:55;55.28;;;30.20;;
11197;SDS011;5655;48.744;9.162;2024-01-11T11:24:20;44.85;;;26.80;;
11197;SDS011;5655;48.744;9.162;2024-01-11T11:26:46;44.95;;;25.77;;
11197;SDS011;5655;48.744;9.162;2024-01-11T11:29:12;50.10;;;27.13;;
11197;SDS011;5655;48.744;9.162;2024-01-11T11:31:38;47.42;;;26.88;;
11197;SDS011;5655;48.744;9.162;2024-01-11T11:34:07;44.60;;;26.98;;
11197;SDS011;5655;48.744;9.162;2024-01-11T11:36:36;49.72;;;28.02;;
11197;SDS011;5655;48.744;9.162;2024-01-11T11:39:01;47.90;;;27.45;;
11197;SDS011;5655;48.744;9.162;2024-01-11T11:41:27;47.92;;;27.77;;
11197;SDS011;5655;48.744;9.162;2024-01-11T11:43:55;44.05;;;27.45;;
11197;SDS011;5655;48.744;9.162;2024-01-11T11:46:25;46.35;;;27.70;;
11197;SDS011;5655;48.744;9.162;2024-01-11T11:48:52;48.95;;;27.88;;
11197;SDS011;5655;48.744;9.162;2024-01-11T11:51:20;45.17;;;27.00;;
11197;SDS011;5655;48.744;9.162;2024-01-11T11:53:48;44.20;;;27.73;;
11197;SDS011;5655;48.744;9.162;2024-01-11T11:56:15;51.28;;;27.98;;
11197;SDS011;5655;48.744;9.162;2024-01-11T11:58:42;50.20;;;28.70;;
11197;SDS011;5655;48.744;9.162;2024-01-11T12:01:09;46.65;;;27.63;;
11197;SDS011;5655;48.744;9.162;2024-01-11T12:03:38;47.83;;;27.88;;
11197;SDS011;5655;48.744;9.162;2024-01-11T12:06:06;47.47;;;27.70;;
11197;SDS011;5655;48.744;9.162;2024-01-11T12:08:35;45.72;;;27.77;;
11197;SDS011;5655;48.744;9.162;2024-01-11T12:11:02;50.42;;;27.63;;
11197;SDS011;5655;48.744;9.162;2024-01-11T12:13:28;44.70;;;27.60;;
11197;SDS011;5655;48.744;9.162;2024-01-11T12:15:53;52.88;;;28.67;;
11197;SDS011;5655;48.744;9.162;2024-01-11T12:18:19;46.85;;;27.48;;
11197;SDS011;5655;48.744;9.162;2024-01-11T12:20:44;46.38;;;27.60;;
11197;SDS011;5655;48.744;9.162;2024-01-11T12:23:10;43.08;;;26.15;;
11197;SDS011;5655;48.744;9.162;2024-01-11T12:25:36;45.75;;;27.40;;
11197;SDS011;5655;48.744;9.162;2024-01-11T12:28:02;48.92;;;29.17;;
11197;SDS011;5655;48.744;9.162;2024-01-11T12:30:27;45.03;;;27.38;;
11197;SDS011;5655;48.744;9.162;2024-01-11T12:32:54;47.15;;;26.48;;
11197;SDS011;5655;48.744;9.162;2024-01-11T12:35:21;46.90;;;27.20;;
11197;SDS011;5655;48.744;9.162;2024-01-11T12:40:26;47.25;;;26.67;;
11197;SDS011;5655;48.744;9.162;2024-01-11T12:42:53;46.90;;;27.80;;
11197;SDS011;5655;48.744;9.162;2024-01-11T12:45:18;49.17;;;27.95;;
11197;SDS011;5655;48.744;9.162;2024-01-11T12:47:44;44.17;;;26.38;;
11197;SDS011;5655;48.744;9.162;2024-01-11T12:50:13;48.35;;;27.85;;
11197;SDS011;5655;48.744;9.162;2024-01-11T12:52:39;47.78;;;27.35;;
11197;SDS011;5655;48.744;9.162;2024-01-11T12:55:06;42.72;;;26.35;;
11197;SDS011;5655;48.744;9.162;2024-01-11T12:57:43;47.25;;;28.15;;
11197;SDS011;5655;48.744;9.162;2024-01-11T13:00:12;42.35;;;25.83;;
11197;SDS011;5655;48.744;9.162;2024-01-11T13:02:39;42.10;;;26.70;;
11197;SDS011;5655;48.744;9.162;2024-01-11T13:05:05;45.35;;;26.52;;
11197;SDS011;5655;48.744;9.162;2024-01-11T13:07:32;43.35;;;25.83;;
11197;SDS011;5655;48.744;9.162;2024-01-11T13:09:58;47.00;;;27.38;;
11197;SDS011;5655;48.744;9.162;2024-01-11T13:12:24;49.25;;;26.63;;
11197;SDS011;5655;48.744;9.162;2024-01-11T13:14:49;49.20;;;27.08;;
11197;SDS011;5655;48.744;9.162;2024-01-11T13:17:15;45.15;;;26.63;;
11197;SDS011;5655;48.744;9.162;2024-01-11T13:19:41;44.08;;;27.00;;
11197;SDS011;5655;48.744;9.162;2024-01-11T13:22:06;44.22;;;25.67;;
11197;SDS011;5655;48.744;9.162;2024-01-11T13:24:31;46.15;;;26.38;;
11197;SDS011;5655;48.744;9.162;2024-01-11T13:26:57;46.28;;;25.35;;
11197;SDS011;5655;48.744;9.162;2024-01-11T13:29:22;40.95;;;24.65;;
11197;SDS011;5655;48.744;9.162;2024-01-11T13:31:47;44.20;;;25.77;;
11197;SDS011;5655;48.744;9.162;2024-01-11T13:34:13;42.15;;;24.65;;
11197;SDS011;5655;48.744;9.162;2024-01-11T13:36:38;42.58;;;25.90;;
11197;SDS011;5655;48.744;9.162;2024-01-11T13:39:04;47.95;;;26.58;;
11197;SDS011;5655;48.744;9.162;2024-01-11T13:41:32;41.80;;;26.08;;
11197;SDS011;5655;48.744;9.162;2024-01-11T13:43:58;45.88;;;26.73;;
11197;SDS011;5655;48.744;9.162;2024-01-11T13:46:23;45.47;;;25.88;;
11197;SDS011;5655;48.744;9.162;2024-01-11T13:48:49;48.13;;;26.88;;
11197;SDS011;5655;48.744;9.162;2024-01-11T13:51:14;41.03;;;25.92;;
11197;SDS011;5655;48.744;9.162;2024-01-11T13:53:40;44.67;;;26.02;;
11197;SDS011;5655;48.744;9.162;2024-01-11T13:56:05;44.40;;;26.90;;
11197;SDS011;5655;48.744;9.162;2024-01-11T13:58:31;47.22;;;25.38;;
11197;SDS011;5655;48.744;9.162;2024-01-11T14:00:56;46.25;;;26.40;;
11197;SDS011;5655;48.744;9.162;2024-01-11T14:03:22;46.67;;;27.02;;
11197;SDS011;5655;48.744;9.162;2024-01-11T14:05:47;45.97;;;26.35;;
11197;SDS011;5655;48.744;9.162;2024-01-11T14:08:12;48.33;;;27.00;;
11197;SDS011;5655;48.744;9.162;2024-01-11T14:10:38;43.38;;;26.15;;
11197;SDS011;5655;48.744;9.162;2024-01-11T14:13:03;47.70;;;26.15;;
11197;SDS011;5655;48.744;9.162;2024-01-11T14:15:28;45.83;;;27.05;;
11197;SDS011;5655;48.744;9.162;2024-01-11T14:17:54;44.00;;;26.95;;
11197;SDS011;5655;48.744;9.162;2024-01-11T14:20:20;45.60;;;27.48;;
11197;SDS011;5655;48.744;9.162;2024-01-11T14:22:46;48.60;;;27.38;;
11197;SDS011;5655;48.744;9.162;2024-01-11T14:25:15;46.22;;;26.45;;
11197;SDS011;5655;48.744;9.162;2024-01-11T14:27:41;50.60;;;28.67;;
11197;SDS011;5655;48.744;9.162;2024-01-11T14:30:07;42.22;;;26.92;;